createdAt,value
2018-02-27T00:01:34.770Z,99.90
2018-02-27T00:04:02.336Z,99.90
2018-02-27T00:06:29.804Z,99.90
2018-02-27T00:08:57.277Z,99.90
2018-02-27T00:11:24.744Z,99.90
2018-02-27T00:13:52.196Z,99.90
2018-02-27T00:16:19.647Z,99.90
2018-02-27T00:18:47.156Z,99.90
2018-02-27T00:21:14.677Z,99.90
2018-02-27T00:23:42.908Z,99.90
2018-02-27T00:26:10.355Z,99.90
2018-02-27T00:28:37.855Z,99.90
2018-02-27T00:31:05.338Z,99.90
2018-02-27T00:33:32.798Z,99.90
2018-02-27T00:36:00.254Z,99.90
2018-02-27T00:38:27.731Z,99.90
2018-02-27T00:40:55.195Z,99.90
2018-02-27T00:43:22.669Z,99.90
2018-02-27T00:45:50.166Z,99.90
2018-02-27T00:48:17.711Z,99.90
2018-02-27T00:50:45.168Z,99.90
2018-02-27T00:53:12.653Z,99.90
2018-02-27T00:55:40.120Z,99.90
2018-02-27T00:58:07.694Z,99.90
2018-02-27T01:00:35.148Z,99.90
2018-02-27T01:03:02.733Z,99.90
2018-02-27T01:05:30.199Z,99.90
2018-02-27T01:07:57.648Z,99.90
2018-02-27T01:10:25.113Z,99.90
2018-02-27T01:12:52.609Z,99.90
2018-02-27T01:15:20.080Z,99.90
2018-02-27T01:17:47.532Z,99.90
2018-02-27T01:20:15.008Z,99.90
2018-02-27T01:22:42.496Z,99.90
2018-02-27T01:25:09.977Z,99.90
2018-02-27T01:27:37.441Z,99.90
2018-02-27T01:30:04.888Z,99.90
2018-02-27T01:32:32.352Z,99.90
2018-02-27T01:34:59.834Z,99.90
2018-02-27T01:37:27.292Z,99.90
2018-02-27T01:39:54.773Z,99.90
2018-02-27T01:42:22.243Z,99.90
2018-02-27T01:44:49.709Z,99.90
2018-02-27T01:47:17.160Z,99.90
2018-02-27T01:49:44.658Z,99.90
2018-02-27T01:52:12.107Z,99.90
2018-02-27T01:54:39.576Z,99.90
2018-02-27T01:57:07.056Z,99.90
2018-02-27T01:59:34.564Z,99.90
2018-02-27T02:02:02.832Z,99.90
2018-02-27T02:04:31.112Z,99.90
2018-02-27T02:06:58.584Z,99.90
2018-02-27T02:09:26.053Z,99.90
2018-02-27T02:11:53.504Z,99.90
2018-02-27T02:14:20.996Z,99.90
2018-02-27T02:16:48.461Z,99.90
2018-02-27T02:19:16.030Z,99.90
2018-02-27T02:21:43.601Z,99.90
2018-02-27T02:24:11.083Z,99.90
2018-02-27T02:26:38.531Z,99.90
2018-02-27T02:29:06.008Z,99.90
2018-02-27T02:31:33.476Z,99.90
2018-02-27T02:34:00.928Z,99.90
2018-02-27T02:36:28.419Z,99.90
2018-02-27T02:38:55.881Z,99.90
2018-02-27T02:41:23.348Z,99.90
2018-02-27T02:43:50.824Z,99.90
2018-02-27T02:46:18.295Z,99.90
2018-02-27T02:48:45.754Z,99.90
2018-02-27T02:51:13.218Z,99.90
2018-02-27T02:53:40.707Z,99.90
2018-02-27T02:56:08.161Z,99.90
2018-02-27T02:58:35.643Z,99.90
2018-02-27T03:01:03.216Z,99.90
2018-02-27T03:03:30.792Z,99.90
2018-02-27T03:05:58.252Z,99.90
2018-02-27T03:08:25.737Z,99.90
2018-02-27T03:10:53.195Z,99.90
2018-02-27T03:13:20.672Z,99.90
2018-02-27T03:15:48.128Z,99.90
2018-02-27T03:18:15.612Z,99.90
2018-02-27T03:20:43.202Z,99.90
2018-02-27T03:23:10.654Z,99.90
2018-02-27T03:25:38.105Z,99.90
2018-02-27T03:28:05.560Z,99.90
2018-02-27T03:30:33.057Z,99.90
2018-02-27T03:33:00.534Z,99.90
2018-02-27T03:35:27.997Z,99.90
2018-02-27T03:37:55.823Z,99.90
2018-02-27T03:40:24.040Z,99.90
2018-02-27T03:42:51.528Z,99.90
2018-02-27T03:45:19.000Z,99.90
2018-02-27T03:47:46.473Z,99.90
2018-02-27T03:50:13.948Z,99.90
2018-02-27T03:52:41.402Z,99.90
2018-02-27T03:55:08.854Z,99.90
2018-02-27T03:57:36.316Z,99.90
2018-02-27T04:00:03.818Z,99.90
2018-02-27T04:02:31.290Z,99.90
2018-02-27T04:04:58.743Z,99.90
2018-02-27T04:07:26.327Z,99.90
2018-02-27T04:09:53.776Z,99.90
2018-02-27T04:12:21.231Z,99.90
2018-02-27T04:14:48.692Z,99.90
2018-02-27T04:17:16.308Z,99.90
2018-02-27T04:19:43.771Z,99.90
2018-02-27T04:22:11.232Z,99.90
2018-02-27T04:24:38.692Z,99.90
2018-02-27T04:27:06.144Z,99.90
2018-02-27T04:29:33.697Z,99.90
2018-02-27T04:32:01.137Z,99.90
2018-02-27T04:34:28.701Z,99.90
2018-02-27T04:36:56.163Z,99.90
2018-02-27T04:39:23.636Z,99.90
2018-02-27T04:41:51.104Z,99.90
2018-02-27T04:44:18.563Z,99.90
2018-02-27T04:46:46.019Z,99.90
2018-02-27T04:49:13.483Z,99.90
2018-02-27T04:51:40.988Z,99.90
2018-02-27T04:54:08.443Z,99.90
2018-02-27T04:56:35.906Z,99.90
2018-02-27T04:59:03.392Z,99.90
2018-02-27T05:01:30.876Z,99.90
2018-02-27T05:03:58.829Z,99.90
2018-02-27T05:06:26.287Z,99.90
2018-02-27T05:08:53.743Z,99.90
2018-02-27T05:11:21.256Z,99.90
2018-02-27T05:13:48.724Z,99.90
2018-02-27T05:21:57.618Z,99.90
2018-02-27T05:24:25.104Z,99.90
2018-02-27T05:26:53.684Z,99.90
2018-02-27T05:29:37.009Z,99.90
2018-02-27T05:34:55.223Z,99.90
2018-02-27T05:40:22.134Z,99.90
2018-02-27T05:42:49.630Z,99.90
2018-02-27T05:45:30.332Z,99.90
2018-02-27T05:47:57.822Z,99.90
2018-02-27T05:50:25.348Z,99.90
2018-02-27T05:52:54.613Z,99.90
2018-02-27T05:55:22.103Z,99.90
2018-02-27T05:57:49.607Z,99.90
2018-02-27T06:00:18.015Z,99.90
2018-02-27T06:02:45.555Z,99.90
2018-02-27T06:05:13.083Z,99.90
2018-02-27T06:07:40.590Z,99.90
2018-02-27T06:10:08.979Z,99.90
2018-02-27T06:12:36.495Z,99.90
2018-02-27T06:15:06.848Z,99.90
2018-02-27T06:17:34.410Z,99.90
2018-02-27T06:20:02.052Z,99.90
2018-02-27T06:22:29.657Z,99.90
2018-02-27T06:24:57.156Z,99.90
2018-02-27T06:27:25.485Z,99.90
2018-02-27T06:29:53.781Z,99.90
2018-02-27T06:32:22.214Z,99.90
2018-02-27T06:34:50.639Z,99.90
2018-02-27T06:37:18.289Z,99.90
2018-02-27T06:39:46.721Z,99.90
2018-02-27T06:42:15.016Z,99.90
2018-02-27T06:44:42.650Z,99.90
2018-02-27T06:47:11.768Z,99.90
2018-02-27T06:49:40.020Z,99.90
2018-02-27T06:52:09.234Z,99.90
2018-02-27T06:54:37.871Z,99.90
2018-02-27T06:57:05.448Z,99.90
2018-02-27T06:59:32.968Z,99.90
2018-02-27T07:02:00.472Z,99.90
2018-02-27T07:04:29.604Z,99.90
2018-02-27T07:06:57.095Z,99.90
2018-02-27T07:09:24.671Z,99.90
2018-02-27T07:11:52.211Z,99.90
2018-02-27T07:14:19.714Z,99.90
2018-02-27T07:16:47.975Z,99.90
2018-02-27T07:19:16.318Z,99.90
2018-02-27T07:21:43.889Z,99.90
2018-02-27T07:24:11.408Z,99.90
2018-02-27T07:26:39.798Z,99.90
2018-02-27T07:29:07.300Z,99.90
2018-02-27T07:31:34.806Z,99.90
2018-02-27T07:34:03.253Z,99.90
2018-02-27T07:36:31.584Z,99.90
2018-02-27T07:38:59.664Z,99.90
2018-02-27T07:41:28.917Z,99.90
2018-02-27T07:44:00.103Z,99.90
2018-02-27T07:46:27.664Z,99.90
2018-02-27T07:48:57.479Z,99.90
2018-02-27T07:51:24.986Z,99.90
2018-02-27T07:53:52.478Z,99.90
2018-02-27T07:56:19.990Z,99.90
2018-02-27T07:58:47.550Z,99.90
2018-02-27T08:01:15.093Z,99.90
2018-02-27T08:03:43.386Z,99.90
2018-02-27T08:06:11.788Z,99.90
2018-02-27T08:08:39.356Z,99.90
2018-02-27T08:11:07.800Z,99.90
2018-02-27T08:13:39.407Z,99.90
2018-02-27T08:16:07.720Z,99.90
2018-02-27T08:18:36.193Z,99.90
2018-02-27T08:21:04.503Z,99.90
2018-02-27T08:23:32.006Z,99.90
2018-02-27T08:25:59.561Z,99.90
2018-02-27T08:28:27.947Z,99.90
2018-02-27T08:30:55.456Z,99.90
2018-02-27T08:33:23.039Z,99.90
2018-02-27T08:35:50.558Z,99.90
2018-02-27T08:38:18.068Z,99.90
2018-02-27T08:40:45.661Z,99.90
2018-02-27T08:43:15.121Z,99.90
2018-02-27T08:45:43.573Z,99.90
2018-02-27T08:48:11.083Z,99.90
2018-02-27T08:50:38.608Z,99.90
2018-02-27T08:53:06.177Z,99.90
2018-02-27T08:55:33.720Z,99.90
2018-02-27T08:58:01.300Z,99.90
2018-02-27T09:00:28.788Z,99.90
2018-02-27T09:02:56.358Z,99.90
2018-02-27T09:05:23.854Z,99.90
2018-02-27T09:07:52.292Z,99.90
2018-02-27T09:10:19.827Z,99.90
2018-02-27T09:12:49.112Z,99.90
2018-02-27T09:15:17.573Z,99.90
2018-02-27T09:17:46.782Z,99.90
2018-02-27T09:20:14.304Z,99.90
2018-02-27T09:22:41.895Z,99.90
2018-02-27T09:25:10.201Z,99.90
2018-02-27T09:27:37.709Z,99.90
2018-02-27T09:30:05.261Z,99.90
2018-02-27T09:32:32.776Z,99.90
2018-02-27T09:35:00.345Z,99.90
2018-02-27T09:37:27.859Z,99.90
2018-02-27T09:39:55.439Z,99.90
2018-02-27T09:42:22.952Z,99.90
2018-02-27T09:44:51.256Z,99.90
2018-02-27T09:47:18.754Z,99.90
2018-02-27T09:49:47.299Z,99.90
2018-02-27T09:52:15.536Z,99.90
2018-02-27T09:54:43.048Z,99.90
2018-02-27T09:57:10.549Z,99.90
2018-02-27T09:59:38.069Z,99.90
2018-02-27T10:02:05.660Z,99.90
2018-02-27T10:04:33.156Z,99.90
2018-02-27T10:07:00.660Z,99.90
2018-02-27T10:09:28.187Z,99.90
2018-02-27T10:11:55.679Z,99.90
2018-02-27T10:14:23.975Z,99.90
2018-02-27T10:16:51.561Z,99.90
2018-02-27T10:19:20.015Z,99.90
2018-02-27T10:21:47.518Z,99.90
2018-02-27T10:24:15.012Z,99.90
2018-02-27T10:26:43.278Z,99.90
2018-02-27T10:29:11.613Z,99.90
2018-02-27T10:31:39.133Z,99.90
2018-02-27T10:34:06.633Z,99.90
2018-02-27T10:36:34.127Z,99.90
2018-02-27T10:39:03.213Z,99.90
2018-02-27T10:41:31.540Z,99.90
2018-02-27T10:43:59.988Z,99.90
2018-02-27T10:46:28.281Z,99.90
2018-02-27T10:48:55.802Z,99.90
2018-02-27T10:51:23.314Z,99.90
2018-02-27T10:53:50.867Z,99.90
2018-02-27T10:56:18.373Z,99.90
2018-02-27T10:58:45.882Z,99.90
2018-02-27T11:01:19.042Z,99.90
2018-02-27T11:03:46.603Z,99.90
2018-02-27T11:06:14.863Z,99.90
2018-02-27T11:08:43.194Z,99.90
2018-02-27T11:11:10.802Z,99.90
2018-02-27T11:13:39.248Z,99.90
2018-02-27T11:16:06.841Z,99.90
2018-02-27T11:18:34.396Z,99.90
2018-02-27T11:21:02.716Z,99.90
2018-02-27T11:23:31.129Z,99.90
2018-02-27T11:25:58.622Z,99.90
2018-02-27T11:28:27.829Z,99.90
2018-02-27T11:30:56.745Z,99.90
2018-02-27T11:33:25.256Z,99.90
2018-02-27T11:35:53.559Z,99.90
2018-02-27T11:38:21.052Z,99.90
2018-02-27T11:40:48.528Z,99.90
2018-02-27T11:43:16.098Z,99.90
2018-02-27T11:45:43.676Z,99.90
2018-02-27T11:48:11.148Z,99.90
2018-02-27T11:50:40.140Z,99.90
2018-02-27T11:53:07.598Z,99.90
2018-02-27T11:55:35.075Z,99.90
2018-02-27T11:58:02.544Z,99.90
2018-02-27T12:00:30.024Z,99.90
2018-02-27T12:02:57.573Z,99.90
2018-02-27T12:05:25.040Z,99.90
2018-02-27T12:07:52.532Z,99.90
2018-02-27T12:10:20.001Z,99.90
2018-02-27T12:12:47.472Z,99.90
2018-02-27T12:15:14.946Z,99.90
2018-02-27T12:17:42.402Z,99.90
2018-02-27T12:20:09.882Z,99.90
2018-02-27T12:22:37.343Z,99.90
2018-02-27T12:25:04.811Z,98.70
2018-02-27T12:27:32.289Z,99.90
2018-02-27T12:29:59.856Z,98.50
2018-02-27T12:32:27.429Z,98.00
2018-02-27T12:34:54.898Z,95.90
2018-02-27T12:37:22.357Z,96.90
2018-02-27T12:39:49.948Z,99.90
2018-02-27T12:42:17.512Z,99.90
2018-02-27T12:44:45.076Z,99.90
2018-02-27T12:47:12.549Z,99.90
2018-02-27T12:49:40.022Z,99.90
2018-02-27T12:52:07.592Z,99.90
2018-02-27T12:54:35.060Z,99.90
2018-02-27T12:57:02.528Z,99.90
2018-02-27T12:59:30.000Z,97.40
2018-02-27T13:01:57.466Z,94.50
2018-02-27T13:04:24.935Z,95.10
2018-02-27T13:06:52.516Z,98.40
2018-02-27T13:09:19.980Z,97.30
2018-02-27T13:11:47.440Z,98.00
2018-02-27T13:14:14.912Z,84.50
2018-02-27T13:16:42.372Z,80.60
2018-02-27T13:19:09.849Z,77.30
2018-02-27T13:21:37.312Z,59.40
2018-02-27T13:24:04.806Z,53.40
2018-02-27T13:26:32.281Z,48.80
2018-02-27T13:28:59.753Z,43.60
2018-02-27T13:31:27.217Z,38.60
2018-02-27T13:33:54.777Z,36.00
2018-02-27T13:36:22.244Z,34.70
2018-02-27T13:38:49.716Z,35.10
2018-02-27T13:41:17.288Z,34.50
2018-02-27T13:43:44.755Z,32.90
2018-02-27T13:46:12.330Z,31.40
2018-02-27T13:48:45.760Z,30.20
2018-02-27T13:51:07.372Z,31.00
2018-02-27T13:53:34.840Z,29.80
2018-02-27T13:56:02.430Z,28.90
2018-02-27T13:58:29.908Z,29.60
2018-02-27T14:00:58.136Z,27.50
2018-02-27T14:03:25.597Z,27.40
2018-02-27T14:05:53.072Z,26.80
2018-02-27T14:08:20.559Z,27.00
2018-02-27T14:10:48.056Z,26.60
2018-02-27T14:13:15.625Z,27.10
2018-02-27T14:15:43.191Z,27.60
2018-02-27T14:18:10.761Z,28.60
2018-02-27T14:20:38.347Z,29.10
2018-02-27T14:23:06.008Z,30.30
2018-02-27T14:25:33.472Z,32.30
2018-02-27T14:28:00.942Z,34.30
2018-02-27T14:30:28.420Z,37.00
2018-02-27T14:32:55.885Z,37.70
2018-02-27T14:35:23.354Z,37.90
2018-02-27T14:37:50.843Z,34.10
2018-02-27T14:40:18.297Z,32.70
2018-02-27T14:42:45.765Z,30.80
2018-02-27T14:45:13.250Z,29.90
2018-02-27T14:47:40.728Z,29.10
2018-02-27T14:50:08.205Z,28.30
2018-02-27T14:52:36.436Z,26.60
2018-02-27T14:55:03.903Z,26.60
2018-02-27T14:57:31.382Z,26.40
2018-02-27T14:59:58.980Z,25.70
2018-02-27T15:02:26.543Z,25.00
2018-02-27T15:04:54.116Z,25.40
2018-02-27T15:07:21.588Z,24.50
2018-02-27T15:09:49.049Z,24.70
2018-02-27T15:12:16.511Z,24.60
2018-02-27T15:14:43.985Z,24.70
2018-02-27T15:17:11.453Z,24.90
2018-02-27T15:19:40.558Z,24.70
2018-02-27T15:22:08.040Z,24.70
2018-02-27T15:24:35.509Z,24.10
2018-02-27T15:27:03.081Z,25.30
2018-02-27T15:29:30.653Z,24.90
2018-02-27T15:31:58.128Z,25.60
2018-02-27T15:34:26.417Z,26.50
2018-02-27T15:36:53.886Z,26.50
2018-02-27T15:39:21.360Z,27.00
2018-02-27T15:41:48.832Z,27.30
2018-02-27T15:44:16.392Z,28.50
2018-02-27T15:46:43.864Z,29.30
2018-02-27T15:49:11.432Z,30.40
2018-02-27T15:51:38.893Z,31.40
2018-02-27T15:54:06.356Z,32.70
2018-02-27T15:56:33.839Z,35.00
2018-02-27T15:59:01.300Z,39.10
2018-02-27T16:01:28.779Z,41.80
2018-02-27T16:03:56.256Z,44.30
2018-02-27T16:06:23.724Z,50.30
2018-02-27T16:08:51.287Z,53.90
2018-02-27T16:11:18.761Z,57.70
2018-02-27T16:13:46.227Z,61.00
2018-02-27T16:16:13.698Z,68.50
2018-02-27T16:18:41.275Z,73.50
2018-02-27T16:21:08.728Z,80.10
2018-02-27T16:23:36.320Z,84.60
2018-02-27T16:26:03.884Z,91.40
2018-02-27T16:28:31.344Z,96.10
2018-02-27T16:30:58.832Z,99.90
2018-02-27T16:33:26.292Z,99.90
2018-02-27T16:35:53.777Z,99.90
2018-02-27T16:38:21.244Z,99.90
2018-02-27T16:40:48.696Z,99.90
2018-02-27T16:43:16.176Z,99.90
2018-02-27T16:45:43.740Z,99.90
2018-02-27T16:48:12.748Z,99.90
2018-02-27T16:50:40.319Z,99.90
2018-02-27T16:53:07.796Z,99.90
2018-02-27T16:55:35.366Z,99.90
2018-02-27T17:03:32.855Z,99.90
2018-02-27T17:06:00.366Z,99.90
2018-02-27T17:08:27.844Z,99.90
2018-02-27T17:10:55.300Z,99.90
2018-02-27T17:13:22.777Z,99.90
2018-02-27T17:15:50.243Z,99.90
2018-02-27T17:18:17.722Z,99.90
2018-02-27T17:20:45.193Z,99.90
2018-02-27T17:23:12.760Z,99.90
2018-02-27T17:25:40.219Z,99.90
2018-02-27T17:28:07.800Z,99.90
2018-02-27T17:30:35.252Z,99.90
2018-02-27T17:33:02.708Z,99.90
2018-02-27T17:35:30.176Z,99.90
2018-02-27T17:37:57.636Z,99.90
2018-02-27T17:40:25.504Z,99.90
2018-02-27T17:42:53.740Z,99.90
2018-02-27T17:45:21.196Z,99.90
2018-02-27T17:47:48.656Z,99.90
2018-02-27T17:50:16.154Z,99.90
2018-02-27T17:52:43.629Z,99.90
2018-02-27T17:55:11.085Z,99.90
2018-02-27T17:57:38.569Z,99.90
2018-02-27T18:00:06.032Z,99.90
2018-02-27T18:02:33.512Z,99.90
2018-02-27T18:05:00.983Z,99.90
2018-02-27T18:07:28.436Z,99.90
2018-02-27T18:09:55.908Z,99.90
2018-02-27T18:12:23.399Z,99.90
2018-02-27T18:14:51.011Z,99.90
2018-02-27T18:17:18.482Z,99.90
2018-02-27T18:19:45.951Z,99.90
2018-02-27T18:22:13.455Z,99.90
2018-02-27T18:24:40.917Z,99.90
2018-02-27T18:27:08.384Z,99.90
2018-02-27T18:29:35.876Z,99.90
2018-02-27T18:32:03.356Z,99.90
2018-02-27T18:34:31.624Z,99.90
2018-02-27T18:36:59.109Z,99.90
2018-02-27T18:39:26.668Z,99.90
2018-02-27T18:41:54.138Z,99.90
2018-02-27T18:44:21.636Z,99.90
2018-02-27T18:46:49.100Z,99.90
2018-02-27T18:49:16.647Z,99.90
2018-02-27T18:51:44.137Z,99.90
2018-02-27T18:54:11.592Z,99.90
2018-02-27T18:56:39.051Z,99.90
2018-02-27T18:59:06.529Z,99.90
2018-02-27T19:01:33.984Z,99.90
2018-02-27T19:04:01.442Z,99.90
2018-02-27T19:06:28.915Z,99.90
2018-02-27T19:08:56.415Z,99.90
2018-02-27T19:11:23.979Z,99.90
2018-02-27T19:13:51.452Z,99.90
2018-02-27T19:16:18.916Z,99.90
2018-02-27T19:18:46.384Z,99.90
2018-02-27T19:21:13.864Z,99.90
2018-02-27T19:23:42.144Z,99.90
2018-02-27T19:26:09.605Z,99.90
2018-02-27T19:28:37.179Z,99.90
2018-02-27T19:31:04.637Z,99.90
2018-02-27T19:33:32.124Z,99.90
2018-02-27T19:35:59.687Z,99.90
2018-02-27T19:38:27.148Z,99.90
2018-02-27T19:40:54.604Z,99.90
2018-02-27T19:43:22.071Z,99.90
2018-02-27T19:45:49.537Z,99.90
2018-02-27T19:48:17.035Z,99.90
2018-02-27T19:50:44.516Z,99.90
2018-02-27T19:53:12.088Z,99.90
2018-02-27T19:55:39.652Z,99.90
2018-02-27T19:58:07.124Z,99.90
2018-02-27T20:00:34.693Z,99.90
2018-02-27T20:03:02.153Z,99.90
2018-02-27T20:05:29.611Z,99.90
2018-02-27T20:07:57.122Z,99.90
2018-02-27T20:10:24.557Z,99.90
2018-02-27T20:12:52.017Z,99.90
2018-02-27T20:15:19.469Z,99.90
2018-02-27T20:17:52.536Z,99.90
2018-02-27T20:20:20.086Z,99.90
2018-02-27T20:22:53.176Z,99.90
2018-02-27T20:25:20.644Z,99.90
2018-02-27T20:27:48.102Z,99.90
2018-02-27T20:30:15.569Z,99.90
2018-02-27T20:32:43.036Z,99.90
2018-02-27T20:35:10.544Z,99.90
2018-02-27T20:37:38.015Z,99.90
2018-02-27T20:40:05.568Z,99.90
2018-02-27T20:42:33.072Z,99.90
2018-02-27T20:45:01.335Z,99.90
2018-02-27T20:47:28.796Z,99.90
2018-02-27T20:49:56.269Z,99.90
2018-02-27T20:52:23.736Z,99.90
2018-02-27T20:54:51.236Z,99.90
2018-02-27T20:57:18.671Z,99.90
2018-02-27T20:59:46.153Z,99.90
2018-02-27T21:02:13.627Z,99.90
2018-02-27T21:04:41.106Z,99.90
2018-02-27T21:07:08.669Z,99.90
2018-02-27T21:09:36.123Z,99.90
2018-02-27T21:12:03.603Z,99.90
2018-02-27T21:14:31.068Z,99.90
2018-02-27T21:16:58.750Z,99.90
2018-02-27T21:19:26.204Z,99.90
2018-02-27T21:21:53.673Z,99.90
2018-02-27T21:24:21.160Z,99.90
2018-02-27T21:26:48.651Z,99.90
2018-02-27T21:29:16.888Z,99.90
2018-02-27T21:34:35.704Z,99.90
2018-02-27T21:37:03.167Z,99.90
2018-02-27T21:39:30.755Z,99.90
2018-02-27T21:41:58.319Z,99.90
2018-02-27T21:44:25.793Z,99.90
2018-02-27T21:46:53.263Z,99.90
2018-02-27T21:49:20.824Z,99.90
2018-02-27T21:51:48.300Z,99.90
2018-02-27T21:54:15.886Z,99.90
2018-02-27T21:56:43.352Z,99.90
2018-02-27T21:59:10.820Z,99.90
2018-02-27T22:01:38.280Z,99.90
2018-02-27T22:04:05.848Z,99.90
2018-02-27T22:06:33.377Z,99.90
2018-02-27T22:09:00.859Z,99.90
2018-02-27T22:11:28.337Z,99.90
2018-02-27T22:13:55.791Z,99.90
2018-02-27T22:16:23.263Z,99.90
2018-02-27T22:18:50.779Z,99.90
2018-02-27T22:21:18.240Z,99.90
2018-02-27T22:23:45.710Z,99.90
2018-02-27T22:26:13.184Z,99.90
2018-02-27T22:28:40.652Z,99.90
2018-02-27T22:31:08.223Z,99.90
2018-02-27T22:33:35.805Z,99.90
2018-02-27T22:36:03.268Z,99.90
2018-02-27T22:38:30.735Z,99.90
2018-02-27T22:40:58.305Z,99.90
2018-02-27T22:43:25.880Z,99.90
2018-02-27T22:45:53.348Z,99.90
2018-02-27T22:48:20.812Z,99.90
2018-02-27T22:50:48.288Z,99.90
2018-02-27T22:53:15.748Z,99.90
2018-02-27T22:55:43.329Z,99.90
2018-02-27T22:58:10.800Z,99.90
2018-02-27T23:00:40.124Z,99.90
2018-02-27T23:03:07.785Z,99.90
2018-02-27T23:05:35.366Z,99.90
2018-02-27T23:08:03.643Z,99.90
2018-02-27T23:10:31.119Z,99.90
2018-02-27T23:12:58.689Z,99.90
2018-02-27T23:15:26.156Z,99.90
2018-02-27T23:17:53.617Z,99.90
2018-02-27T23:20:21.101Z,99.90
2018-02-27T23:22:48.664Z,99.90
2018-02-27T23:25:22.416Z,99.90
2018-02-27T23:27:52.044Z,99.90
2018-02-27T23:30:21.668Z,99.90
2018-02-27T23:32:50.360Z,99.90
2018-02-27T23:35:23.632Z,99.90
2018-02-27T23:37:51.200Z,99.90
2018-02-27T23:40:18.659Z,99.90
2018-02-27T23:42:46.128Z,99.90
2018-02-27T23:45:13.621Z,99.90
2018-02-27T23:47:41.108Z,99.90
2018-02-27T23:50:09.372Z,99.90
2018-02-27T23:52:37.601Z,99.90
2018-02-27T23:55:05.841Z,99.90
2018-02-27T23:57:33.363Z,99.90
